Aérodrome :
LOGIN :

S'inscrire | Disclaimer

   EN    FR    IT 

 










Légende :    VFR   VFR Marginal   IFR   IFR Intensif   IFR Très Intensif
Visi : 
Plafond : 
>= 8 km
>= 3000ft
5 à 8 km
1000 à 3000 ft
1500m à 5 km
500 à 1000 ft
800 à 1500m
200 à 500 ft
< 800m
< 200 ft
Symboles :   Orages  Brouillard  Fortes neiges  Fortes précipitations  Vent > 20 kt
SIGMETs :   Divers  Orages  Givrage  Turbulence  Onde Orograph.  Cendres Volcan.






- Altitude de l'aérodrome : 1234 ft
- Code IATA : LUX


ELLX - Luxembourg Findel

DERNIER METAR :
  • 161220Z 23016KT 9999 -SHRA SCT025TCU 17/14 Q1015 TEMPO 22015G25KT

METARs EXPIRÉS :
  • 161150Z 22014KT 9999 -SHRA SCT025TCU 19/13 Q1014 TEMPO 22015G25KT
  • 161120Z 22012KT 9999 SCT025 17/14 Q1015 NOSIG
  • 161050Z 22014KT 9999 -SHRA SCT025 BKN045 16/13 Q1015 NOSIG
  • 161020Z 22010KT 190V250 9999 -SHRA SCT024 BKN030 18/12 Q1014 NOSIG
  • 160950Z 22012KT 170V250 9999 SCT025 BKN065 18/13 Q1014 NOSIG
  • 160920Z 22012KT 180V240 9999 SCT020 BKN040 17/12 Q1014 NOSIG
  • 160850Z 23009KT 190V260 9999 SCT015 SCT030 17/14 Q1014 NOSIG
  • 160820Z 22011KT 9999 SCT013 BKN015 BKN020 16/14 Q1014 TEMPO BKN012
  • 160750Z 20010KT 9999 -SHRA SCT012 BKN015 16/14 Q1014 TEMPO BKN012
  • 160720Z 20009KT 170V230 9999 SCT012 BKN015 16/14 Q1014 NOSIG

TAF TAF ELLX
Valide du 16 à 12h jusqu'au 17 à 18h UTC


161100Z 1612/1718 22012KT 9999 SCT030
TEMPO 1612/1618 22015G25KT 3000 SHRA SCT030CB
ATIS : +352 4798 27300
Météo : +352 4798 27010 / 27050



MET'MAP, la Météo Aéronautique d'un coup d'oeil ! - Copyright ORBIFLY Décembre 2007 - Disclaimer

ORBIFLY MET'MAP TEAM :

Programmation & Développement : Alexandra Zaïnal
Sur une idée originale de : Baudouin d'Aumeries
Soutien technique & logistique : Manuel Goepfert
Assistance : Marc-Olivier Méhu




SOURCES & CREDITS :

   NOAA